This is the latest recevied weather packets stored in our database for station/object AE5HO. If no packets are shown the sender has not sent any weather packets the latest 1 day(s).
| Time | Temp. | Humidity | Pressure | Rain* | Wind** | Luminosity | Snow |
|---|---|---|---|---|---|---|---|
| 1778031538 | 21.67° C | 72% | 1007 hPa | 0 mm | - | 0 W/m² | - |
| 1778031236 | 21.67° C | 72% | 1006.6 hPa | 0 mm | - | 0 W/m² | - |
| 1778030932 | 21.67° C | 72% | 1006.9 hPa | 0 mm | - | 0 W/m² | - |
| 1778030629 | 21.67° C | 71% | 1006.5 hPa | 0 mm | - | 0 W/m² | - |
| 1778030326 | 22.22° C | 71% | 1006.7 hPa | 0 mm | - | 0 W/m² | - |
| 1778030023 | 22.22° C | 71% | 1006.6 hPa | 0 mm | - | 0 W/m² | - |
| 1778029720 | 22.78° C | 70% | 1006.7 hPa | 0 mm | - | 0 W/m² | - |
| 1778029418 | 22.78° C | 69% | 1006.6 hPa | 0 mm | - | 0 W/m² | - |
| 1778029115 | 22.78° C | 69% | 1006.5 hPa | 0 mm | - | 0 W/m² | - |
| 1778027901 | 23.33° C | 68% | 1005.5 hPa | 0 mm | - | 2 W/m² | - |
| 1778027598 | 23.89° C | 67% | 1005.8 hPa | 0 mm | - | 0 W/m² | - |
| 1778027295 | 23.89° C | 67% | 1005.7 hPa | 0 mm | - | 2 W/m² | - |
| 1778026991 | 23.89° C | 67% | 1005.4 hPa | 0 mm | - | 4 W/m² | - |
| 1778026384 | 24.44° C | 67% | 1005.4 hPa | 0 mm | - | 12 W/m² | - |
| 1778026081 | 25° C | 66% | 1005.5 hPa | 0 mm | - | 17 W/m² | - |
| 1778025475 | 25.56° C | 65% | 1005.1 hPa | 0 mm | - | 28 W/m² | - |
| 1778025173 | 26.11° C | 65% | 1005.3 hPa | 0 mm | - | 35 W/m² | - |
| 1778024567 | 26.11° C | 64% | 1005 hPa | 0 mm | - | 42 W/m² | - |
| 1778020630 | 29.44° C | 55% | 1004.2 hPa | 0 mm | - | 76 W/m² | - |
| 1778020022 | 30° C | 52% | 1004.1 hPa | 0 mm | - | 95 W/m² | - |
| 1778019718 | 30° C | 53% | 1004 hPa | 0 mm | - | 93 W/m² | - |
| 1778019112 | 30.56° C | 52% | 1003.8 hPa | 0 mm | - | 104 W/m² | - |
| 1778018507 | 31.11° C | 52% | 1003.6 hPa | 0 mm | - | 110 W/m² | - |
| 1778017297 | 32.22° C | 54% | 1003.9 hPa | 0 mm | - | 111 W/m² | - |
| 1778016691 | 32.22° C | 54% | 1003.9 hPa | 0 mm | - | 69 W/m² | - |
* Rain latest hour (hover to see other rain measurements)
** Current wind speed in m/s (hover to see current wind gust speed)